Time,TemperatureF,DewpointF,PressureIn,WindDirection,WindDirectionDegrees,WindSpeedMPH,WindSpeedGustMPH,Humidity,HourlyPrecipIn,Conditions,Clouds,dailyrainin,SoftwareType,DateUTC
2013-08-17 00:01:00,62.1,56.8,30.15,SW,225,0.0,0.0,83,0.00,CLR,,0.00,WeatherDisplay:10.37,2013-08-17 04:01:00,
2013-08-17 00:02:00,62.1,56.8,30.15,SW,225,0.0,0.0,83,0.00,CLR,,0.00,WeatherDisplay:10.37,2013-08-17 04:02:00,
2013-08-17 00:07:00,61.9,56.7,30.15,WSW,248,0.0,0.0,83,0.00,CLR,,0.00,WeatherDisplay:10.37,2013-08-17 04:07:00,
2013-08-17 00:12:00,61.9,56.7,30.15,WSW,248,0.0,0.0,83,0.00,CLR,,0.00,WeatherDisplay:10.37,2013-08-17 04:12:00,
2013-08-17 00:17:00,61.9,57.0,30.15,WSW,248,0.0,0.0,84,0.00,CLR,,0.00,WeatherDisplay:10.37,2013-08-17 04:17:00,
2013-08-17 00:22:00,61.9,57.0,30.15,West,270,0.0,0.0,84,0.00,CLR,,0.00,WeatherDisplay:10.37,2013-08-17 04:22:00,
2013-08-17 00:27:00,61.9,57.0,30.15,SW,225,0.0,0.0,84,0.00,CLR,,0.00,WeatherDisplay:10.37,2013-08-17 04:27:00,
2013-08-17 00:32:00,61.9,57.0,30.15,SW,225,0.0,0.0,84,0.00,CLR,,0.00,WeatherDisplay:10.37,2013-08-17 04:32:00,
2013-08-17 00:37:00,61.9,57.0,30.15,SW,225,0.0,0.0,84,0.00,CLR,,0.00,WeatherDisplay:10.37,2013-08-17 04:37:00,
2013-08-17 00:42:00,61.9,57.3,30.15,NW,315,0.0,0.0,85,0.00,CLR,,0.00,WeatherDisplay:10.37,2013-08-17 04:42:00,
2013-08-17 00:47:00,61.9,57.3,30.15,NW,315,0.0,0.0,85,0.00,CLR,,0.00,WeatherDisplay:10.37,2013-08-17 04:47:00,
2013-08-17 00:52:00,61.9,57.3,30.15,SW,225,0.0,0.0,85,0.00,CLR,,0.00,WeatherDisplay:10.37,2013-08-17 04:52:00,
2013-08-17 00:57:00,61.9,57.3,30.15,SSW,202,0.0,0.0,85,0.00,CLR,,0.00,WeatherDisplay:10.37,2013-08-17 04:57:00,
2013-08-17 01:02:00,61.9,57.3,30.15,SSW,202,0.2,0.0,85,0.00,CLR,,0.00,WeatherDisplay:10.37,2013-08-17 05:02:00,
2013-08-17 01:07:00,61.9,57.6,30.15,WSW,248,0.5,0.5,86,0.00,CLR,,0.00,WeatherDisplay:10.37,2013-08-17 05:07:00,
2013-08-17 01:12:00,62.1,57.8,30.14,WSW,248,0.0,0.0,86,0.00,CLR,,0.00,WeatherDisplay:10.37,2013-08-17 05:12:00,
2013-08-17 01:17:00,61.9,57.6,30.14,WSW,248,0.0,0.0,86,0.00,CLR,,0.00,WeatherDisplay:10.37,2013-08-17 05:17:00,
2013-08-17 01:22:00,61.9,57.6,30.14,WSW,248,0.0,0.0,86,0.00,CLR,,0.00,WeatherDisplay:10.37,2013-08-17 05:22:00,
2013-08-17 01:27:00,61.9,57.6,30.15,WSW,248,0.0,0.0,86,0.00,CLR,,0.00,WeatherDisplay:10.37,2013-08-17 05:27:00,
2013-08-17 01:32:00,61.9,57.6,30.15,WSW,248,0.0,0.0,86,0.00,CLR,,0.00,WeatherDisplay:10.37,2013-08-17 05:32:00,
2013-08-17 01:37:00,61.7,57.5,30.15,West,270,0.5,0.0,86,0.00,CLR,,0.00,WeatherDisplay:10.37,2013-08-17 05:37:00,
2013-08-17 01:42:00,61.7,57.5,30.15,WNW,292,0.0,0.0,86,0.00,CLR,,0.00,WeatherDisplay:10.37,2013-08-17 05:42:00,
2013-08-17 01:47:00,61.7,57.5,30.15,WNW,292,0.0,0.0,86,0.00,CLR,,0.00,WeatherDisplay:10.37,2013-08-17 05:47:00,
2013-08-17 01:52:00,61.7,57.8,30.15,WNW,292,0.0,0.0,87,0.00,CLR,,0.00,WeatherDisplay:10.37,2013-08-17 05:52:00,
2013-08-17 01:57:00,61.7,57.5,30.15,West,270,0.0,0.0,86,0.00,CLR,,0.00,WeatherDisplay:10.37,2013-08-17 05:57:00,
2013-08-17 02:02:00,61.5,57.3,30.15,West,270,0.0,0.0,86,0.00,CLR,,0.00,WeatherDisplay:10.37,2013-08-17 06:02:00,
2013-08-17 02:07:00,61.5,57.3,30.15,West,270,0.0,0.0,86,0.00,CLR,,0.00,WeatherDisplay:10.37,2013-08-17 06:07:00,
2013-08-17 02:12:00,61.5,57.3,30.15,West,270,0.0,0.0,86,0.00,CLR,,0.00,WeatherDisplay:10.37,2013-08-17 06:12:00,
2013-08-17 02:17:00,61.3,57.1,30.15,West,270,0.0,0.0,86,0.00,CLR,,0.00,WeatherDisplay:10.37,2013-08-17 06:17:00,
2013-08-17 02:22:00,61.3,57.4,30.15,West,270,0.0,0.0,87,0.00,CLR,,0.00,WeatherDisplay:10.37,2013-08-17 06:22:00,
2013-08-17 02:27:00,61.2,57.3,30.15,West,270,0.0,0.0,87,0.00,CLR,,0.00,WeatherDisplay:10.37,2013-08-17 06:27:00,
2013-08-17 02:32:00,61.2,57.3,30.15,West,270,0.0,0.0,87,0.00,CLR,,0.00,WeatherDisplay:10.37,2013-08-17 06:32:00,
2013-08-17 02:37:00,61.2,57.3,30.15,West,270,0.0,0.0,87,0.00,CLR,,0.00,WeatherDisplay:10.37,2013-08-17 06:37:00,
2013-08-17 02:42:00,61.0,57.1,30.15,West,270,0.0,0.0,87,0.00,CLR,,0.00,WeatherDisplay:10.37,2013-08-17 06:42:00,
2013-08-17 02:47:00,60.8,56.9,30.15,West,270,0.0,0.0,87,0.00,CLR,,0.00,WeatherDisplay:10.37,2013-08-17 06:47:00,
2013-08-17 02:52:00,60.8,56.9,30.15,West,270,0.0,0.0,87,0.00,CLR,,0.00,WeatherDisplay:10.37,2013-08-17 06:52:00,
2013-08-17 02:57:00,60.6,56.7,30.15,West,270,0.0,0.0,87,0.00,CLR,,0.00,WeatherDisplay:10.37,2013-08-17 06:57:00,
2013-08-17 03:02:00,60.6,56.7,30.15,West,270,0.0,0.0,87,0.00,CLR,,0.00,WeatherDisplay:10.37,2013-08-17 07:02:00,
2013-08-17 03:07:00,60.6,56.7,30.15,West,270,0.0,0.0,87,0.00,CLR,,0.00,WeatherDisplay:10.37,2013-08-17 07:07:00,
2013-08-17 03:12:00,60.6,56.7,30.15,West,270,0.0,0.0,87,0.00,CLR,,0.00,WeatherDisplay:10.37,2013-08-17 07:12:00,
2013-08-17 03:17:00,60.4,56.6,30.15,West,270,0.0,0.0,87,0.00,CLR,,0.00,WeatherDisplay:10.37,2013-08-17 07:17:00,
2013-08-17 03:22:00,60.4,56.6,30.15,West,270,0.0,0.0,87,0.00,CLR,,0.00,WeatherDisplay:10.37,2013-08-17 07:22:00,
2013-08-17 03:27:00,60.3,56.4,30.15,West,270,0.0,0.0,87,0.00,CLR,,0.00,WeatherDisplay:10.37,2013-08-17 07:27:00,
2013-08-17 03:32:00,60.1,56.2,30.14,West,270,0.0,0.0,87,0.00,CLR,,0.00,WeatherDisplay:10.37,2013-08-17 07:32:00,
2013-08-17 03:37:00,59.9,56.0,30.15,West,270,0.0,0.0,87,0.00,CLR,,0.00,WeatherDisplay:10.37,2013-08-17 07:37:00,
2013-08-17 03:42:00,59.7,55.8,30.15,West,270,0.0,0.0,87,0.00,CLR,,0.00,WeatherDisplay:10.37,2013-08-17 07:42:00,
2013-08-17 03:47:00,59.4,55.5,30.15,West,270,0.0,0.0,87,0.00,CLR,,0.00,WeatherDisplay:10.37,2013-08-17 07:47:00,
2013-08-17 03:52:00,59.4,55.5,30.15,West,270,0.0,0.0,87,0.00,CLR,,0.00,WeatherDisplay:10.37,2013-08-17 07:52:00,
2013-08-17 03:57:00,59.2,55.3,30.15,West,270,0.0,0.0,87,0.00,CLR,,0.00,WeatherDisplay:10.37,2013-08-17 07:57:00,
2013-08-17 04:02:00,59.0,55.1,30.15,West,270,0.0,0.0,87,0.00,CLR,,0.00,WeatherDisplay:10.37,2013-08-17 08:02:00,
2013-08-17 04:07:00,59.0,55.1,30.14,West,270,0.0,0.0,87,0.00,CLR,,0.00,WeatherDisplay:10.37,2013-08-17 08:07:00,
2013-08-17 04:12:00,59.0,55.4,30.14,West,270,0.0,0.0,88,0.00,CLR,,0.00,WeatherDisplay:10.37,2013-08-17 08:12:00,
2013-08-17 04:17:00,58.8,55.3,30.14,West,270,0.0,0.0,88,0.00,CLR,,0.00,WeatherDisplay:10.37,2013-08-17 08:17:00,
2013-08-17 04:22:00,58.8,55.3,30.15,West,270,0.0,0.0,88,0.00,CLR,,0.00,WeatherDisplay:10.37,2013-08-17 08:22:00,
2013-08-17 04:27:00,58.6,55.1,30.15,West,270,0.0,0.0,88,0.00,CLR,,0.00,WeatherDisplay:10.37,2013-08-17 08:27:00,
2013-08-17 04:32:00,58.6,55.1,30.15,West,270,0.0,0.0,88,0.00,CLR,,0.00,WeatherDisplay:10.37,2013-08-17 08:32:00,
2013-08-17 04:37:00,58.6,55.1,30.15,West,270,0.0,0.0,88,0.00,CLR,,0.00,WeatherDisplay:10.37,2013-08-17 08:37:00,
2013-08-17 04:42:00,58.5,54.9,30.15,West,270,0.0,0.0,88,0.00,CLR,,0.00,WeatherDisplay:10.37,2013-08-17 08:42:00,
2013-08-17 04:47:00,58.3,54.7,30.15,West,270,0.0,0.0,88,0.00,CLR,,0.00,WeatherDisplay:10.37,2013-08-17 08:47:00,
2013-08-17 04:52:00,58.1,54.6,30.15,West,270,0.0,0.0,88,0.00,CLR,,0.00,WeatherDisplay:10.37,2013-08-17 08:52:00,
2013-08-17 04:57:00,57.9,54.4,30.15,West,270,0.0,0.0,88,0.00,CLR,,0.00,WeatherDisplay:10.37,2013-08-17 08:57:00,
2013-08-17 05:02:00,57.7,54.2,30.15,West,270,0.0,0.0,88,0.00,CLR,,0.00,WeatherDisplay:10.37,2013-08-17 09:02:00,
2013-08-17 05:07:00,57.6,54.0,30.15,West,270,0.0,0.0,88,0.00,CLR,,0.00,WeatherDisplay:10.37,2013-08-17 09:07:00,
2013-08-17 05:12:00,57.4,53.9,30.15,West,270,0.0,0.0,88,0.00,CLR,,0.00,WeatherDisplay:10.37,2013-08-17 09:12:00,
2013-08-17 05:17:00,57.2,53.4,30.15,West,270,0.0,0.0,87,0.00,CLR,,0.00,WeatherDisplay:10.37,2013-08-17 09:17:00,
2013-08-17 05:22:00,57.2,53.4,30.15,West,270,0.0,0.0,87,0.00,CLR,,0.00,WeatherDisplay:10.37,2013-08-17 09:22:00,
2013-08-17 05:27:00,57.0,53.2,30.15,West,270,0.0,0.0,87,0.00,CLR,,0.00,WeatherDisplay:10.37,2013-08-17 09:27:00,
2013-08-17 05:32:00,56.8,53.0,30.15,West,270,0.0,0.0,87,0.00,CLR,,0.00,WeatherDisplay:10.37,2013-08-17 09:32:00,
2013-08-17 05:37:00,56.8,53.0,30.16,West,270,0.0,0.0,87,0.00,CLR,,0.00,WeatherDisplay:10.37,2013-08-17 09:37:00,
2013-08-17 05:42:00,56.7,52.8,30.16,West,270,0.0,0.0,87,0.00,CLR,,0.00,WeatherDisplay:10.37,2013-08-17 09:42:00,
2013-08-17 05:47:00,56.5,52.7,30.16,West,270,0.0,0.0,87,0.00,CLR,,0.00,WeatherDisplay:10.37,2013-08-17 09:47:00,
2013-08-17 05:52:00,56.5,52.7,30.16,West,270,0.0,0.0,87,0.00,CLR,,0.00,WeatherDisplay:10.37,2013-08-17 09:52:00,
2013-08-17 05:57:00,56.3,52.5,30.16,West,270,0.0,0.0,87,0.00,CLR,,0.00,WeatherDisplay:10.37,2013-08-17 09:57:00,
2013-08-17 06:02:00,56.1,52.3,30.17,West,270,0.0,0.0,87,0.00,CLR,,0.00,WeatherDisplay:10.37,2013-08-17 10:02:00,
2013-08-17 06:07:00,56.1,52.3,30.17,West,270,0.0,0.0,87,0.00,CLR,,0.00,WeatherDisplay:10.37,2013-08-17 10:07:00,
2013-08-17 06:12:00,56.1,52.3,30.17,West,270,0.0,0.0,87,0.00,CLR,,0.00,WeatherDisplay:10.37,2013-08-17 10:12:00,
2013-08-17 06:17:00,56.1,52.3,30.17,West,270,0.0,0.0,87,0.00,CLR,,0.00,WeatherDisplay:10.37,2013-08-17 10:17:00,
2013-08-17 06:22:00,56.1,52.3,30.17,NNW,338,0.0,0.0,87,0.00,CLR,,0.00,WeatherDisplay:10.37,2013-08-17 10:22:00,
2013-08-17 06:27:00,56.1,52.3,30.16,NNW,338,0.0,0.0,87,0.00,CLR,,0.00,WeatherDisplay:10.37,2013-08-17 10:27:00,
2013-08-17 06:32:00,56.1,52.3,30.16,NNW,338,0.0,0.0,87,0.00,CLR,,0.00,WeatherDisplay:10.37,2013-08-17 10:32:00,
2013-08-17 06:37:00,56.1,52.3,30.16,NNW,338,0.0,0.0,87,0.00,CLR,,0.00,WeatherDisplay:10.37,2013-08-17 10:37:00,
2013-08-17 06:42:00,56.5,52.7,30.16,NNW,338,0.0,0.0,87,0.00,CLR,,0.00,WeatherDisplay:10.37,2013-08-17 10:42:00,
2013-08-17 06:47:00,56.7,53.1,30.16,NNW,338,0.0,0.0,88,0.00,CLR,,0.00,WeatherDisplay:10.37,2013-08-17 10:47:00,
2013-08-17 06:52:00,56.7,53.1,30.17,NNW,338,0.0,0.0,88,0.00,CLR,,0.00,WeatherDisplay:10.37,2013-08-17 10:52:00,
2013-08-17 06:57:00,57.0,53.5,30.17,NNW,338,0.2,0.2,88,0.00,CLR,,0.00,WeatherDisplay:10.37,2013-08-17 10:57:00,
2013-08-17 07:02:00,57.2,53.7,30.17,NNW,338,0.0,0.0,88,0.00,CLR,,0.00,WeatherDisplay:10.37,2013-08-17 11:02:00,
2013-08-17 07:07:00,57.6,54.0,30.17,NNW,338,0.0,0.0,88,0.00,CLR,,0.00,WeatherDisplay:10.37,2013-08-17 11:07:00,
2013-08-17 07:12:00,57.9,54.4,30.17,NNW,338,0.0,0.0,88,0.00,CLR,,0.00,WeatherDisplay:10.37,2013-08-17 11:12:00,
2013-08-17 07:17:00,58.3,55.1,30.17,NNW,338,0.0,0.0,89,0.00,CLR,,0.00,WeatherDisplay:10.37,2013-08-17 11:17:00,
2013-08-17 07:22:00,58.6,55.4,30.17,NNW,338,0.7,1.1,89,0.00,CLR,,0.00,WeatherDisplay:10.37,2013-08-17 11:22:00,
2013-08-17 07:27:00,59.2,55.9,30.17,NNW,338,0.0,0.0,89,0.00,CLR,,0.00,WeatherDisplay:10.37,2013-08-17 11:27:00,
2013-08-17 07:32:00,59.7,56.5,30.18,NNW,338,0.0,0.0,89,0.00,CLR,,0.00,WeatherDisplay:10.37,2013-08-17 11:32:00,
2013-08-17 07:37:00,60.3,57.0,30.17,North,0,1.1,1.1,89,0.00,CLR,,0.00,WeatherDisplay:10.37,2013-08-17 11:37:00,
2013-08-17 07:42:00,60.8,57.5,30.17,North,0,1.6,1.6,89,0.00,CLR,,0.00,WeatherDisplay:10.37,2013-08-17 11:42:00,
2013-08-17 07:47:00,61.5,58.2,30.17,NNE,22,0.9,0.9,89,0.00,CLR,,0.00,WeatherDisplay:10.37,2013-08-17 11:47:00,
2013-08-17 07:52:00,62.2,58.6,30.17,NW,315,0.5,2.3,88,0.00,CLR,,0.00,WeatherDisplay:10.37,2013-08-17 11:52:00,
2013-08-17 07:57:00,62.8,58.9,30.17,NE,45,0.5,2.3,87,0.00,CLR,,0.00,WeatherDisplay:10.37,2013-08-17 11:57:00,
2013-08-17 08:02:00,63.5,59.2,30.18,NNE,22,2.4,4.6,86,0.00,CLR,,0.00,WeatherDisplay:10.37,2013-08-17 12:02:00,
2013-08-17 08:06:00,64.0,59.8,30.18,NNW,338,1.4,2.3,86,0.00,CLR,,0.00,WeatherDisplay:10.37,2013-08-17 12:06:00,
2013-08-17 08:11:00,64.8,60.1,30.18,WNW,292,0.5,2.3,85,0.00,CLR,,0.00,WeatherDisplay:10.37,2013-08-17 12:11:00,
2013-08-17 08:16:00,65.5,60.2,30.18,North,0,0.5,2.3,83,0.00,CLR,,0.00,WeatherDisplay:10.37,2013-08-17 12:16:00,
2013-08-17 08:21:00,66.2,60.9,30.18,NNW,338,1.1,2.3,83,0.00,CLR,,0.00,WeatherDisplay:10.37,2013-08-17 12:21:00,
2013-08-17 08:26:00,66.9,61.2,30.18,NE,45,1.1,1.1,82,0.00,CLR,,0.00,WeatherDisplay:10.37,2013-08-17 12:26:00,
2013-08-17 08:31:00,67.3,60.9,30.19,North,0,3.3,3.5,80,0.00,CLR,,0.00,WeatherDisplay:10.37,2013-08-17 12:31:00,
2013-08-17 08:36:00,68.0,61.6,30.19,North,0,0.7,3.5,80,0.00,CLR,,0.00,WeatherDisplay:10.37,2013-08-17 12:36:00,
2013-08-17 08:41:00,68.4,61.6,30.18,NNW,338,0.5,1.1,79,0.00,CLR,,0.00,WeatherDisplay:10.37,2013-08-17 12:41:00,
2013-08-17 08:46:00,69.1,61.9,30.18,NNE,22,1.6,2.3,78,0.00,CLR,,0.00,WeatherDisplay:10.37,2013-08-17 12:46:00,
2013-08-17 08:51:00,69.4,61.2,30.18,NNE,22,4.0,4.6,75,0.00,CLR,,0.00,WeatherDisplay:10.37,2013-08-17 12:51:00,
2013-08-17 08:56:00,69.8,60.8,30.18,NNE,22,4.0,4.6,73,0.00,CLR,,0.00,WeatherDisplay:10.37,2013-08-17 12:56:00,
2013-08-17 09:01:00,70.2,61.5,30.18,NNE,22,4.0,4.6,74,0.00,CLR,,0.00,WeatherDisplay:10.37,2013-08-17 13:01:00,
2013-08-17 09:06:00,70.9,62.2,30.18,NNE,22,4.0,4.6,74,0.00,CLR,,0.00,WeatherDisplay:10.37,2013-08-17 13:06:00,
2013-08-17 09:11:00,71.4,61.1,30.18,NNE,22,4.0,4.6,70,0.00,CLR,,0.00,WeatherDisplay:10.37,2013-08-17 13:11:00,
2013-08-17 09:16:00,71.6,61.7,30.18,NNE,22,4.0,4.6,71,0.00,CLR,,0.00,WeatherDisplay:10.37,2013-08-17 13:16:00,
2013-08-17 09:21:00,71.8,61.5,30.18,NNE,22,4.0,4.6,70,0.00,CLR,,0.00,WeatherDisplay:10.37,2013-08-17 13:21:00,
2013-08-17 09:26:00,72.1,62.6,30.18,NNE,22,4.0,4.6,72,0.00,CLR,,0.00,WeatherDisplay:10.37,2013-08-17 13:26:00,
2013-08-17 09:31:00,72.5,62.6,30.18,NNE,22,4.0,4.6,71,0.00,CLR,,0.00,WeatherDisplay:10.37,2013-08-17 13:31:00,
2013-08-17 09:36:00,73.0,62.3,30.19,NNE,22,4.0,4.6,69,0.00,CLR,,0.00,WeatherDisplay:10.37,2013-08-17 13:36:00,
2013-08-17 09:41:00,73.4,62.6,30.19,NNE,22,4.0,4.6,69,0.00,CLR,,0.00,WeatherDisplay:10.37,2013-08-17 13:41:00,
2013-08-17 09:46:00,73.4,61.8,30.19,NNE,22,4.0,4.6,67,0.00,CLR,,0.00,WeatherDisplay:10.37,2013-08-17 13:46:00,
2013-08-17 09:51:00,73.8,62.1,30.19,NNE,22,4.0,4.6,67,0.00,CLR,,0.00,WeatherDisplay:10.37,2013-08-17 13:51:00,
2013-08-17 09:56:00,74.1,62.5,30.19,NNE,22,4.0,4.6,67,0.00,CLR,,0.00,WeatherDisplay:10.37,2013-08-17 13:56:00,
2013-08-17 10:01:00,74.3,62.6,30.19,NNE,22,4.0,4.6,67,0.00,CLR,,0.00,WeatherDisplay:10.37,2013-08-17 14:01:00,
2013-08-17 10:06:00,74.7,62.5,30.19,NNE,22,4.0,4.6,66,0.00,CLR,,0.00,WeatherDisplay:10.37,2013-08-17 14:06:00,
2013-08-17 10:11:00,74.8,63.1,30.19,NNE,22,4.0,4.6,67,0.00,CLR,,0.00,WeatherDisplay:10.37,2013-08-17 14:11:00,
2013-08-17 10:16:00,75.6,63.8,30.19,ENE,68,2.9,2.9,67,0.00,CLR,,0.00,WeatherDisplay:10.37,2013-08-17 14:16:00,
2013-08-17 10:21:00,75.7,63.6,30.20,NNE,22,2.9,2.9,66,0.00,CLR,,0.00,WeatherDisplay:10.37,2013-08-17 14:21:00,
2013-08-17 10:26:00,75.9,63.3,30.20,ENE,68,2.4,5.8,65,0.00,CLR,,0.00,WeatherDisplay:10.37,2013-08-17 14:26:00,
2013-08-17 10:31:00,75.7,63.1,30.20,North,0,2.0,4.6,65,0.00,CLR,,0.00,WeatherDisplay:10.37,2013-08-17 14:31:00,
2013-08-17 10:36:00,75.9,62.9,30.20,NNW,338,1.8,3.5,64,0.00,CLR,,0.00,WeatherDisplay:10.37,2013-08-17 14:36:00,
2013-08-17 10:41:00,75.9,63.7,30.20,NNE,22,2.9,2.9,66,0.00,CLR,,0.00,WeatherDisplay:10.37,2013-08-17 14:41:00,
2013-08-17 10:46:00,75.9,63.7,30.20,NE,45,2.6,2.6,66,0.00,CLR,,0.00,WeatherDisplay:10.37,2013-08-17 14:46:00,
2013-08-17 10:51:00,76.1,63.0,30.20,NNE,22,2.6,3.5,64,0.00,CLR,,0.00,WeatherDisplay:10.37,2013-08-17 14:51:00,
2013-08-17 10:56:00,76.5,63.8,30.20,ENE,68,1.4,4.6,65,0.00,CLR,,0.00,WeatherDisplay:10.37,2013-08-17 14:56:00,
2013-08-17 11:01:00,76.8,63.3,30.20,SSE,158,4.0,4.0,63,0.00,CLR,,0.00,WeatherDisplay:10.37,2013-08-17 15:01:00,
2013-08-17 11:06:00,77.0,63.4,30.20,NW,315,2.4,5.8,63,0.00,CLR,,0.00,WeatherDisplay:10.37,2013-08-17 15:06:00,
2013-08-17 11:11:00,77.0,63.4,30.20,ENE,68,1.8,3.5,63,0.00,CLR,,0.00,WeatherDisplay:10.37,2013-08-17 15:11:00,
2013-08-17 11:16:00,77.0,63.4,30.21,NW,315,3.6,3.6,63,0.00,CLR,,0.00,WeatherDisplay:10.37,2013-08-17 15:16:00,
2013-08-17 11:21:00,77.2,64.1,30.21,NNE,22,3.1,3.5,64,0.00,CLR,,0.00,WeatherDisplay:10.37,2013-08-17 15:21:00,
2013-08-17 11:26:00,77.4,63.8,30.20,ENE,68,3.6,3.6,63,0.00,CLR,,0.00,WeatherDisplay:10.37,2013-08-17 15:26:00,
2013-08-17 11:31:00,77.5,64.4,30.21,NE,45,1.4,2.3,64,0.00,CLR,,0.00,WeatherDisplay:10.37,2013-08-17 15:31:00,
2013-08-17 11:36:00,77.5,63.9,30.21,ENE,68,1.4,2.3,63,0.00,CLR,,0.00,WeatherDisplay:10.37,2013-08-17 15:36:00,
2013-08-17 11:41:00,77.5,63.5,30.21,North,0,2.4,2.4,62,0.00,CLR,,0.00,WeatherDisplay:10.37,2013-08-17 15:41:00,
2013-08-17 11:46:00,77.4,62.9,30.21,NNW,338,2.0,3.5,61,0.00,CLR,,0.00,WeatherDisplay:10.37,2013-08-17 15:46:00,
2013-08-17 11:51:00,77.5,64.4,30.21,North,0,1.1,1.1,64,0.00,CLR,,0.00,WeatherDisplay:10.37,2013-08-17 15:51:00,
2013-08-17 11:56:00,78.1,64.9,30.21,North,0,1.8,5.8,64,0.00,CLR,,0.00,WeatherDisplay:10.37,2013-08-17 15:56:00,
2013-08-17 12:01:00,78.1,64.0,30.20,NNW,338,2.2,2.3,62,0.00,CLR,,0.00,WeatherDisplay:10.37,2013-08-17 16:01:00,
2013-08-17 12:06:00,77.9,62.9,30.20,NNW,338,3.3,4.6,60,0.00,CLR,,0.00,WeatherDisplay:10.37,2013-08-17 16:06:00,
2013-08-17 12:11:00,78.4,62.9,30.20,NNW,338,2.0,3.5,59,0.00,CLR,,0.00,WeatherDisplay:10.37,2013-08-17 16:11:00,
2013-08-17 12:16:00,78.8,63.3,30.20,NE,45,2.4,2.4,59,0.00,CLR,,0.00,WeatherDisplay:10.37,2013-08-17 16:16:00,
2013-08-17 12:21:00,78.8,62.8,30.20,NE,45,2.4,4.6,58,0.00,CLR,,0.00,WeatherDisplay:10.37,2013-08-17 16:21:00,
2013-08-17 12:26:00,79.0,63.9,30.20,NW,315,1.1,3.5,60,0.00,CLR,,0.00,WeatherDisplay:10.37,2013-08-17 16:26:00,
2013-08-17 12:31:00,79.0,63.9,30.19,NE,45,3.8,3.8,60,0.00,CLR,,0.00,WeatherDisplay:10.37,2013-08-17 16:31:00,
2013-08-17 12:36:00,79.3,63.8,30.20,East,90,1.1,3.5,59,0.00,CLR,,0.00,WeatherDisplay:10.37,2013-08-17 16:36:00,
2013-08-17 12:41:00,79.9,64.3,30.19,NNW,338,0.7,5.8,59,0.00,CLR,,0.00,WeatherDisplay:10.37,2013-08-17 16:41:00,
2013-08-17 12:46:00,80.1,63.5,30.20,NNW,338,4.7,4.7,57,0.00,CLR,,0.00,WeatherDisplay:10.37,2013-08-17 16:46:00,
2013-08-17 12:51:00,80.2,63.1,30.19,North,0,1.8,2.3,56,0.00,CLR,,0.00,WeatherDisplay:10.37,2013-08-17 16:51:00,
2013-08-17 12:56:00,80.1,63.5,30.20,NNW,338,2.2,2.3,57,0.00,CLR,,0.00,WeatherDisplay:10.37,2013-08-17 16:56:00,
2013-08-17 13:01:00,80.2,63.1,30.19,NNW,338,2.2,2.3,56,0.00,CLR,,0.00,WeatherDisplay:10.37,2013-08-17 17:01:00,
2013-08-17 13:06:00,80.1,62.9,30.19,East,90,6.0,6.9,56,0.00,CLR,,0.00,WeatherDisplay:10.37,2013-08-17 17:06:00,
2013-08-17 13:11:00,80.1,62.9,30.19,North,0,4.3,4.6,56,0.00,CLR,,0.00,WeatherDisplay:10.37,2013-08-17 17:11:00,
2013-08-17 13:16:00,80.2,63.6,30.19,ENE,68,0.5,0.0,57,0.00,CLR,,0.00,WeatherDisplay:10.37,2013-08-17 17:16:00,
2013-08-17 13:21:00,80.6,64.0,30.19,NNW,338,2.4,4.6,57,0.00,CLR,,0.00,WeatherDisplay:10.37,2013-08-17 17:21:00,
2013-08-17 13:26:00,80.4,62.8,30.19,NW,315,3.3,3.5,55,0.00,CLR,,0.00,WeatherDisplay:10.37,2013-08-17 17:26:00,
2013-08-17 13:31:00,80.6,62.9,30.18,NE,45,4.7,5.8,55,0.00,CLR,,0.00,WeatherDisplay:10.37,2013-08-17 17:31:00,
2013-08-17 13:36:00,80.6,63.5,30.18,NE,45,3.1,3.5,56,0.00,CLR,,0.00,WeatherDisplay:10.37,2013-08-17 17:36:00,
2013-08-17 13:41:00,80.6,63.5,30.19,West,270,3.3,4.6,56,0.00,CLR,,0.00,WeatherDisplay:10.37,2013-08-17 17:41:00,
2013-08-17 13:46:00,80.6,62.4,30.19,ESE,112,2.4,4.6,54,0.00,CLR,,0.00,WeatherDisplay:10.37,2013-08-17 17:46:00,
2013-08-17 13:51:00,80.6,63.5,30.19,ENE,68,1.1,2.3,56,0.00,CLR,,0.00,WeatherDisplay:10.37,2013-08-17 17:51:00,
2013-08-17 13:56:00,80.8,64.1,30.19,NE,45,4.7,4.7,57,0.00,CLR,,0.00,WeatherDisplay:10.37,2013-08-17 17:56:00,
2013-08-17 14:01:00,81.0,63.3,30.19,East,90,5.6,5.6,55,0.00,CLR,,0.00,WeatherDisplay:10.37,2013-08-17 18:01:00,
2013-08-17 14:06:00,80.4,62.8,30.19,North,0,5.4,5.4,55,0.00,CLR,,0.00,WeatherDisplay:10.37,2013-08-17 18:06:00,
2013-08-17 14:11:00,80.2,63.6,30.19,ENE,68,4.7,4.7,57,0.00,CLR,,0.00,WeatherDisplay:10.37,2013-08-17 18:11:00,
2013-08-17 14:16:00,80.2,63.1,30.19,NNW,338,4.9,4.9,56,0.00,CLR,,0.00,WeatherDisplay:10.37,2013-08-17 18:16:00,
2013-08-17 14:21:00,79.7,63.1,30.18,North,0,1.8,2.3,57,0.00,CLR,,0.00,WeatherDisplay:10.37,2013-08-17 18:21:00,
2013-08-17 14:26:00,79.9,63.8,30.18,NNW,338,3.3,3.3,58,0.00,CLR,,0.00,WeatherDisplay:10.37,2013-08-17 18:26:00,
2013-08-17 14:31:00,80.1,64.0,30.18,North,0,1.8,4.6,58,0.00,CLR,,0.00,WeatherDisplay:10.37,2013-08-17 18:31:00,
2013-08-17 14:36:00,80.2,63.6,30.18,ENE,68,1.1,5.8,57,0.00,CLR,,0.00,WeatherDisplay:10.37,2013-08-17 18:36:00,
2013-08-17 14:41:00,80.6,64.0,30.18,ENE,68,2.4,4.6,57,0.00,CLR,,0.00,WeatherDisplay:10.37,2013-08-17 18:41:00,
2013-08-17 14:46:00,80.6,64.0,30.18,NE,45,2.9,4.6,57,0.00,CLR,,0.00,WeatherDisplay:10.37,2013-08-17 18:46:00,
2013-08-17 14:51:00,80.8,63.6,30.18,ENE,68,5.4,5.4,56,0.00,CLR,,0.00,WeatherDisplay:10.37,2013-08-17 18:51:00,
2013-08-17 14:56:00,80.2,63.6,30.18,WNW,292,1.4,4.6,57,0.00,CLR,,0.00,WeatherDisplay:10.37,2013-08-17 18:56:00,
2013-08-17 15:01:00,80.2,63.6,30.18,ENE,68,3.8,4.6,57,0.00,CLR,,0.00,WeatherDisplay:10.37,2013-08-17 19:01:00,
2013-08-17 15:06:00,79.9,62.8,30.18,NNW,338,4.5,5.8,56,0.00,CLR,,0.00,WeatherDisplay:10.37,2013-08-17 19:06:00,
2013-08-17 15:11:00,79.5,62.9,30.18,NE,45,5.6,5.8,57,0.00,CLR,,0.00,WeatherDisplay:10.37,2013-08-17 19:11:00,
2013-08-17 15:16:00,79.5,63.9,30.18,NNW,338,1.4,3.5,59,0.00,CLR,,0.00,WeatherDisplay:10.37,2013-08-17 19:16:00,
2013-08-17 15:21:00,79.5,63.4,30.18,WNW,292,1.1,5.8,58,0.00,CLR,,0.00,WeatherDisplay:10.37,2013-08-17 19:21:00,
2013-08-17 15:26:00,79.5,63.9,30.18,SE,135,3.3,3.5,59,0.00,CLR,,0.00,WeatherDisplay:10.37,2013-08-17 19:26:00,
2013-08-17 15:31:00,79.9,63.3,30.18,North,0,6.7,6.7,57,0.00,CLR,,0.00,WeatherDisplay:10.37,2013-08-17 19:31:00,
2013-08-17 15:36:00,79.5,63.4,30.18,NE,45,0.7,4.6,58,0.00,CLR,,0.00,WeatherDisplay:10.37,2013-08-17 19:36:00,
2013-08-17 15:41:00,79.5,63.9,30.18,ENE,68,1.1,4.6,59,0.00,CLR,,0.00,WeatherDisplay:10.37,2013-08-17 19:41:00,
2013-08-17 15:46:00,79.5,63.4,30.18,WNW,292,3.3,3.5,58,0.00,CLR,,0.00,WeatherDisplay:10.37,2013-08-17 19:46:00,
2013-08-17 15:51:00,79.5,63.4,30.18,NNE,22,4.0,4.6,58,0.00,CLR,,0.00,WeatherDisplay:10.37,2013-08-17 19:51:00,
2013-08-17 15:56:00,79.2,63.6,30.18,NNE,22,2.2,3.5,59,0.00,CLR,,0.00,WeatherDisplay:10.37,2013-08-17 19:56:00,
2013-08-17 16:01:00,78.8,63.3,30.18,NE,45,4.0,4.6,59,0.00,CLR,,0.00,WeatherDisplay:10.37,2013-08-17 20:01:00,
2013-08-17 16:06:00,78.8,63.3,30.18,NE,45,3.3,3.5,59,0.00,CLR,,0.00,WeatherDisplay:10.37,2013-08-17 20:06:00,
2013-08-17 16:11:00,78.4,62.4,30.18,NNW,338,4.7,4.7,58,0.00,CLR,,0.00,WeatherDisplay:10.37,2013-08-17 20:11:00,
2013-08-17 16:16:00,78.1,62.6,30.18,NNW,338,3.6,3.6,59,0.00,CLR,,0.00,WeatherDisplay:10.37,2013-08-17 20:16:00,
2013-08-17 16:21:00,78.1,63.1,30.18,NNE,22,2.4,2.4,60,0.00,CLR,,0.00,WeatherDisplay:10.37,2013-08-17 20:21:00,
2013-08-17 16:26:00,77.9,63.4,30.18,NE,45,3.8,3.8,61,0.00,CLR,,0.00,WeatherDisplay:10.37,2013-08-17 20:26:00,
2013-08-17 16:31:00,78.1,63.5,30.18,NNE,22,2.4,3.5,61,0.00,CLR,,0.00,WeatherDisplay:10.37,2013-08-17 20:31:00,
2013-08-17 16:36:00,78.3,63.7,30.18,NE,45,4.0,4.0,61,0.00,CLR,,0.00,WeatherDisplay:10.37,2013-08-17 20:36:00,
2013-08-17 16:41:00,78.1,63.5,30.18,SSE,158,1.6,3.5,61,0.00,CLR,,0.00,WeatherDisplay:10.37,2013-08-17 20:41:00,
2013-08-17 16:46:00,77.5,63.5,30.19,NNE,22,2.4,3.5,62,0.00,CLR,,0.00,WeatherDisplay:10.37,2013-08-17 20:46:00,
2013-08-17 16:51:00,77.2,62.7,30.19,NNE,22,2.6,4.6,61,0.00,CLR,,0.00,WeatherDisplay:10.37,2013-08-17 20:51:00,
2013-08-17 16:56:00,77.2,63.2,30.18,NE,45,3.8,4.6,62,0.00,CLR,,0.00,WeatherDisplay:10.37,2013-08-17 20:56:00,
2013-08-17 17:01:00,77.5,62.6,30.18,ENE,68,2.0,4.6,60,0.00,CLR,,0.00,WeatherDisplay:10.37,2013-08-17 21:01:00,
2013-08-17 17:06:00,77.5,62.6,30.18,NNW,338,1.4,3.5,60,0.00,CLR,,0.00,WeatherDisplay:10.37,2013-08-17 21:06:00,
2013-08-17 17:11:00,77.5,62.6,30.19,ENE,68,6.2,6.2,60,0.00,CLR,,0.00,WeatherDisplay:10.37,2013-08-17 21:11:00,
2013-08-17 17:16:00,77.4,62.9,30.19,ENE,68,6.2,6.2,61,0.00,CLR,,0.00,WeatherDisplay:10.37,2013-08-17 21:16:00,
2013-08-17 17:21:00,76.5,62.0,30.19,ENE,68,3.8,3.8,61,0.00,CLR,,0.00,WeatherDisplay:10.37,2013-08-17 21:21:00,
2013-08-17 17:26:00,75.9,62.0,30.19,NNE,22,4.3,4.3,62,0.00,CLR,,0.00,WeatherDisplay:10.37,2013-08-17 21:26:00,
2013-08-17 17:31:00,75.2,61.3,30.19,NE,45,1.6,1.6,62,0.00,CLR,,0.00,WeatherDisplay:10.37,2013-08-17 21:31:00,
2013-08-17 17:36:00,74.8,61.4,30.19,North,0,1.1,4.6,63,0.00,CLR,,0.00,WeatherDisplay:10.37,2013-08-17 21:36:00,
2013-08-17 17:41:00,74.5,61.5,30.19,NNW,338,2.4,2.4,64,0.00,CLR,,0.00,WeatherDisplay:10.37,2013-08-17 21:41:00,
2013-08-17 17:46:00,74.1,61.6,30.19,NW,315,1.8,2.3,65,0.00,CLR,,0.00,WeatherDisplay:10.37,2013-08-17 21:46:00,
2013-08-17 17:51:00,73.9,61.4,30.19,North,0,3.3,3.3,65,0.00,CLR,,0.00,WeatherDisplay:10.37,2013-08-17 21:51:00,
2013-08-17 17:56:00,73.8,61.3,30.19,East,90,1.6,2.3,65,0.00,CLR,,0.00,WeatherDisplay:10.37,2013-08-17 21:56:00,
2013-08-17 18:01:00,73.6,61.5,30.19,East,90,1.4,2.3,66,0.00,CLR,,0.00,WeatherDisplay:10.37,2013-08-17 22:01:00,
2013-08-17 18:06:00,73.4,61.3,30.19,NE,45,2.0,2.0,66,0.00,CLR,,0.00,WeatherDisplay:10.37,2013-08-17 22:06:00,
2013-08-17 18:11:00,73.4,61.8,30.20,NE,45,2.4,2.4,67,0.00,CLR,,0.00,WeatherDisplay:10.37,2013-08-17 22:11:00,
2013-08-17 18:16:00,73.0,61.4,30.20,East,90,1.4,2.3,67,0.00,CLR,,0.00,WeatherDisplay:10.37,2013-08-17 22:16:00,
2013-08-17 18:21:00,73.0,61.4,30.20,East,90,0.5,2.3,67,0.00,CLR,,0.00,WeatherDisplay:10.37,2013-08-17 22:21:00,
2013-08-17 18:26:00,72.7,61.5,30.20,ENE,68,0.5,0.5,68,0.00,CLR,,0.00,WeatherDisplay:10.37,2013-08-17 22:26:00,
2013-08-17 18:31:00,72.5,61.3,30.20,NE,45,0.7,0.7,68,0.00,CLR,,0.00,WeatherDisplay:10.37,2013-08-17 22:31:00,
2013-08-17 18:36:00,72.5,61.7,30.20,NE,45,0.5,0.5,69,0.00,CLR,,0.00,WeatherDisplay:10.37,2013-08-17 22:36:00,
2013-08-17 18:41:00,72.3,61.6,30.20,NE,45,0.0,0.0,69,0.00,CLR,,0.00,WeatherDisplay:10.37,2013-08-17 22:41:00,
2013-08-17 18:46:00,72.1,61.4,30.20,NE,45,0.0,0.0,69,0.00,CLR,,0.00,WeatherDisplay:10.37,2013-08-17 22:46:00,
2013-08-17 18:51:00,72.0,61.6,30.20,NE,45,0.0,0.0,70,0.00,CLR,,0.00,WeatherDisplay:10.37,2013-08-17 22:51:00,
2013-08-17 18:56:00,71.6,60.9,30.20,NNE,22,0.5,1.1,69,0.00,CLR,,0.00,WeatherDisplay:10.37,2013-08-17 22:56:00,
2013-08-17 19:01:00,71.2,61.0,30.20,NNE,22,0.5,0.5,70,0.00,CLR,,0.00,WeatherDisplay:10.37,2013-08-17 23:01:00,
2013-08-17 19:06:00,71.1,60.8,30.20,NNE,22,0.0,0.0,70,0.00,CLR,,0.00,WeatherDisplay:10.37,2013-08-17 23:06:00,
2013-08-17 19:11:00,70.9,60.6,30.20,NNE,22,0.0,0.0,70,0.00,CLR,,0.00,WeatherDisplay:10.37,2013-08-17 23:11:00,
2013-08-17 19:16:00,70.5,60.3,30.20,NNE,22,0.0,0.0,70,0.00,CLR,,0.00,WeatherDisplay:10.37,2013-08-17 23:16:00,
2013-08-17 19:21:00,70.3,60.5,30.20,NNE,22,0.0,0.0,71,0.00,CLR,,0.00,WeatherDisplay:10.37,2013-08-17 23:21:00,
2013-08-17 19:26:00,70.0,60.1,30.20,NNE,22,0.0,0.0,71,0.00,CLR,,0.00,WeatherDisplay:10.37,2013-08-17 23:26:00,
2013-08-17 19:31:00,69.6,60.2,30.20,NNE,22,0.0,0.0,72,0.00,CLR,,0.00,WeatherDisplay:10.37,2013-08-17 23:31:00,
2013-08-17 19:36:00,69.3,59.8,30.20,NNE,22,0.0,0.0,72,0.00,CLR,,0.00,WeatherDisplay:10.37,2013-08-17 23:36:00,
2013-08-17 19:41:00,68.9,59.9,30.20,NNE,22,0.0,0.0,73,0.00,CLR,,0.00,WeatherDisplay:10.37,2013-08-17 23:41:00,
2013-08-17 19:46:00,68.5,59.5,30.20,NNE,22,0.0,0.0,73,0.00,CLR,,0.00,WeatherDisplay:10.37,2013-08-17 23:46:00,
2013-08-17 19:51:00,68.2,59.6,30.19,NNE,22,0.0,0.0,74,0.00,CLR,,0.00,WeatherDisplay:10.37,2013-08-17 23:51:00,
2013-08-17 19:56:00,67.8,59.6,30.20,NW,315,0.0,0.0,75,0.00,CLR,,0.00,WeatherDisplay:10.37,2013-08-17 23:56:00,
2013-08-17 20:01:00,67.5,59.3,30.20,NW,315,0.0,0.0,75,0.00,CLR,,0.00,WeatherDisplay:10.37,2013-08-18 00:01:00,
2013-08-17 20:06:00,67.3,59.1,30.20,NW,315,0.0,0.0,75,0.00,CLR,,0.00,WeatherDisplay:10.37,2013-08-18 00:06:00,
2013-08-17 20:11:00,66.9,59.1,30.20,NW,315,0.0,0.0,76,0.00,CLR,,0.00,WeatherDisplay:10.37,2013-08-18 00:11:00,
2013-08-17 20:16:00,66.7,58.9,30.20,NW,315,0.0,0.0,76,0.00,CLR,,0.00,WeatherDisplay:10.37,2013-08-18 00:16:00,
2013-08-17 20:21:00,66.6,59.1,30.20,NW,315,0.0,0.0,77,0.00,CLR,,0.00,WeatherDisplay:10.37,2013-08-18 00:21:00,
2013-08-17 20:26:00,66.2,58.8,30.21,NW,315,0.0,0.0,77,0.00,CLR,,0.00,WeatherDisplay:10.37,2013-08-18 00:26:00,
2013-08-17 20:31:00,65.8,58.8,30.20,NW,315,0.0,0.0,78,0.00,CLR,,0.00,WeatherDisplay:10.37,2013-08-18 00:31:00,
2013-08-17 20:36:00,65.7,59.0,30.20,NW,315,0.0,0.0,79,0.00,CLR,,0.00,WeatherDisplay:10.37,2013-08-18 00:36:00,
2013-08-17 20:41:00,65.5,58.8,30.21,NW,315,0.0,0.0,79,0.00,CLR,,0.00,WeatherDisplay:10.37,2013-08-18 00:41:00,
2013-08-17 20:46:00,65.3,58.6,30.20,NW,315,0.0,0.0,79,0.00,CLR,,0.00,WeatherDisplay:10.37,2013-08-18 00:46:00,
2013-08-17 20:51:00,65.1,58.8,30.21,NW,315,0.0,0.0,80,0.00,CLR,,0.00,WeatherDisplay:10.37,2013-08-18 00:51:00,
2013-08-17 20:56:00,64.9,58.6,30.21,NW,315,0.0,0.0,80,0.00,CLR,,0.00,WeatherDisplay:10.37,2013-08-18 00:56:00,
2013-08-17 21:01:00,64.8,58.4,30.21,NW,315,0.0,0.0,80,0.00,CLR,,0.00,WeatherDisplay:10.37,2013-08-18 01:01:00,
2013-08-17 21:06:00,64.8,58.4,30.21,NW,315,0.0,0.0,80,0.00,CLR,,0.00,WeatherDisplay:10.37,2013-08-18 01:06:00,
2013-08-17 21:11:00,64.6,58.3,30.21,NW,315,0.5,0.5,80,0.00,CLR,,0.00,WeatherDisplay:10.37,2013-08-18 01:11:00,
2013-08-17 21:16:00,64.4,58.4,30.21,North,0,0.2,0.2,81,0.00,CLR,,0.00,WeatherDisplay:10.37,2013-08-18 01:16:00,
2013-08-17 21:21:00,64.2,58.3,30.21,North,0,0.0,0.0,81,0.00,CLR,,0.00,WeatherDisplay:10.37,2013-08-18 01:21:00,
2013-08-17 21:26:00,64.2,58.3,30.21,North,0,0.0,0.0,81,0.00,CLR,,0.00,WeatherDisplay:10.37,2013-08-18 01:26:00,
2013-08-17 21:31:00,64.0,58.1,30.21,North,0,0.0,0.0,81,0.00,CLR,,0.00,WeatherDisplay:10.37,2013-08-18 01:31:00,
2013-08-17 21:36:00,63.9,57.9,30.22,North,0,0.0,0.0,81,0.00,CLR,,0.00,WeatherDisplay:10.37,2013-08-18 01:36:00,
2013-08-17 21:41:00,63.7,57.7,30.22,North,0,0.0,0.0,81,0.00,CLR,,0.00,WeatherDisplay:10.37,2013-08-18 01:41:00,
2013-08-17 21:46:00,63.7,57.7,30.21,ENE,68,0.2,0.2,81,0.00,CLR,,0.00,WeatherDisplay:10.37,2013-08-18 01:46:00,
2013-08-17 21:51:00,63.5,57.6,30.22,ENE,68,0.0,0.0,81,0.00,CLR,,0.00,WeatherDisplay:10.37,2013-08-18 01:51:00,
2013-08-17 21:56:00,63.3,57.4,30.21,ENE,68,0.0,0.0,81,0.00,CLR,,0.00,WeatherDisplay:10.37,2013-08-18 01:56:00,
2013-08-17 22:01:00,63.1,57.6,30.22,North,0,0.0,0.0,82,0.00,CLR,,0.00,WeatherDisplay:10.37,2013-08-18 02:01:00,
2013-08-17 22:06:00,63.0,57.4,30.21,North,0,0.0,0.0,82,0.00,CLR,,0.00,WeatherDisplay:10.37,2013-08-18 02:06:00,
2013-08-17 22:11:00,63.0,57.4,30.21,North,0,0.0,0.0,82,0.00,CLR,,0.00,WeatherDisplay:10.37,2013-08-18 02:11:00,
2013-08-17 22:16:00,62.8,57.2,30.21,North,0,0.0,0.0,82,0.00,CLR,,0.00,WeatherDisplay:10.37,2013-08-18 02:16:00,
2013-08-17 22:21:00,62.6,57.0,30.21,North,0,0.0,0.0,82,0.00,CLR,,0.00,WeatherDisplay:10.37,2013-08-18 02:21:00,
2013-08-17 22:26:00,62.4,56.9,30.21,North,0,0.0,0.0,82,0.00,CLR,,0.00,WeatherDisplay:10.37,2013-08-18 02:26:00,
2013-08-17 22:31:00,62.2,56.7,30.21,North,0,0.0,0.0,82,0.00,CLR,,0.00,WeatherDisplay:10.37,2013-08-18 02:31:00,
2013-08-17 22:36:00,62.2,56.7,30.22,North,0,0.0,0.0,82,0.00,CLR,,0.00,WeatherDisplay:10.37,2013-08-18 02:36:00,
2013-08-17 22:41:00,62.1,56.8,30.22,North,0,0.0,0.0,83,0.00,CLR,,0.00,WeatherDisplay:10.37,2013-08-18 02:41:00,
2013-08-17 22:46:00,61.9,56.7,30.21,North,0,0.0,0.0,83,0.00,CLR,,0.00,WeatherDisplay:10.37,2013-08-18 02:46:00,
2013-08-17 22:51:00,61.9,56.7,30.22,North,0,0.0,0.0,83,0.00,CLR,,0.00,WeatherDisplay:10.37,2013-08-18 02:51:00,
2013-08-17 22:56:00,61.7,56.5,30.21,North,0,0.0,0.0,83,0.00,CLR,,0.00,WeatherDisplay:10.37,2013-08-18 02:56:00,
2013-08-17 23:01:00,61.5,56.3,30.22,North,0,0.0,0.0,83,0.00,CLR,,0.00,WeatherDisplay:10.37,2013-08-18 03:01:00,
2013-08-17 23:06:00,61.3,56.1,30.22,North,0,0.0,0.0,83,0.00,CLR,,0.00,WeatherDisplay:10.37,2013-08-18 03:06:00,
2013-08-17 23:11:00,61.3,56.1,30.23,North,0,0.0,0.0,83,0.00,CLR,,0.00,WeatherDisplay:10.37,2013-08-18 03:11:00,
2013-08-17 23:16:00,61.2,56.3,30.23,North,0,0.0,0.0,84,0.00,CLR,,0.00,WeatherDisplay:10.37,2013-08-18 03:16:00,
2013-08-17 23:21:00,61.0,56.1,30.23,North,0,0.0,0.0,84,0.00,CLR,,0.00,WeatherDisplay:10.37,2013-08-18 03:21:00,
2013-08-17 23:26:00,61.0,56.1,30.23,North,0,0.0,0.0,84,0.00,CLR,,0.00,WeatherDisplay:10.37,2013-08-18 03:26:00,
2013-08-17 23:31:00,60.8,55.9,30.22,North,0,0.0,0.0,84,0.00,CLR,,0.00,WeatherDisplay:10.37,2013-08-18 03:31:00,
2013-08-17 23:36:00,60.8,55.9,30.22,North,0,0.0,0.0,84,0.00,CLR,,0.00,WeatherDisplay:10.37,2013-08-18 03:36:00,
2013-08-17 23:41:00,60.8,55.9,30.22,North,0,0.0,0.0,84,0.00,CLR,,0.00,WeatherDisplay:10.37,2013-08-18 03:41:00,
2013-08-17 23:46:00,60.4,55.6,30.22,North,0,0.0,0.0,84,0.00,CLR,,0.00,WeatherDisplay:10.37,2013-08-18 03:46:00,
2013-08-17 23:51:00,60.4,55.6,30.22,North,0,0.0,0.0,84,0.00,CLR,,0.00,WeatherDisplay:10.37,2013-08-18 03:51:00,
2013-08-17 23:56:00,60.3,55.7,30.22,North,0,0.0,0.0,85,0.00,CLR,,0.00,WeatherDisplay:10.37,2013-08-18 03:56:00,